sensor_id;sensor_type;location;lat;lon;timestamp;P1;durP1;ratioP1;P2;durP2;ratioP2
20287;SDS011;10303;51.960;8.372;2023-02-04T00:01:06;14.60;;;3.17;;
20287;SDS011;10303;51.960;8.372;2023-02-04T00:03:32;20.57;;;3.90;;
20287;SDS011;10303;51.960;8.372;2023-02-04T00:05:58;29.83;;;3.67;;
20287;SDS011;10303;51.960;8.372;2023-02-04T00:08:25;19.27;;;3.40;;
20287;SDS011;10303;51.960;8.372;2023-02-04T00:10:51;13.00;;;2.33;;
20287;SDS011;10303;51.960;8.372;2023-02-04T00:13:17;8.87;;;1.60;;
20287;SDS011;10303;51.960;8.372;2023-02-04T00:15:43;25.73;;;3.37;;
20287;SDS011;10303;51.960;8.372;2023-02-04T00:18:09;14.00;;;3.13;;
20287;SDS011;10303;51.960;8.372;2023-02-04T00:20:35;10.47;;;2.10;;
20287;SDS011;10303;51.960;8.372;2023-02-04T00:23:01;12.33;;;2.43;;
20287;SDS011;10303;51.960;8.372;2023-02-04T00:25:27;13.77;;;2.47;;
20287;SDS011;10303;51.960;8.372;2023-02-04T00:27:53;11.10;;;3.60;;
20287;SDS011;10303;51.960;8.372;2023-02-04T00:30:18;15.90;;;3.40;;
20287;SDS011;10303;51.960;8.372;2023-02-04T00:32:44;14.13;;;2.20;;
20287;SDS011;10303;51.960;8.372;2023-02-04T00:35:10;10.23;;;3.23;;
20287;SDS011;10303;51.960;8.372;2023-02-04T00:37:37;13.57;;;2.63;;
20287;SDS011;10303;51.960;8.372;2023-02-04T00:40:03;18.97;;;2.40;;
20287;SDS011;10303;51.960;8.372;2023-02-04T00:42:30;19.60;;;4.30;;
20287;SDS011;10303;51.960;8.372;2023-02-04T00:44:57;14.83;;;2.67;;
20287;SDS011;10303;51.960;8.372;2023-02-04T00:47:23;22.03;;;2.90;;
20287;SDS011;10303;51.960;8.372;2023-02-04T00:49:49;13.53;;;2.83;;
20287;SDS011;10303;51.960;8.372;2023-02-04T00:52:15;12.97;;;2.63;;
20287;SDS011;10303;51.960;8.372;2023-02-04T00:54:41;18.13;;;2.90;;
20287;SDS011;10303;51.960;8.372;2023-02-04T00:57:07;21.43;;;3.50;;
20287;SDS011;10303;51.960;8.372;2023-02-04T00:59:33;15.90;;;3.10;;
20287;SDS011;10303;51.960;8.372;2023-02-04T01:01:58;17.27;;;3.10;;
20287;SDS011;10303;51.960;8.372;2023-02-04T01:04:24;12.70;;;3.13;;
20287;SDS011;10303;51.960;8.372;2023-02-04T01:06:52;16.67;;;2.80;;
20287;SDS011;10303;51.960;8.372;2023-02-04T01:09:18;19.13;;;2.30;;
20287;SDS011;10303;51.960;8.372;2023-02-04T01:11:44;23.33;;;2.77;;
20287;SDS011;10303;51.960;8.372;2023-02-04T01:14:10;11.90;;;2.67;;
20287;SDS011;10303;51.960;8.372;2023-02-04T01:16:38;21.50;;;2.93;;
20287;SDS011;10303;51.960;8.372;2023-02-04T01:19:03;9.23;;;2.67;;
20287;SDS011;10303;51.960;8.372;2023-02-04T01:21:29;14.47;;;3.00;;
20287;SDS011;10303;51.960;8.372;2023-02-04T01:23:55;12.80;;;2.90;;
20287;SDS011;10303;51.960;8.372;2023-02-04T01:26:21;17.87;;;2.60;;
20287;SDS011;10303;51.960;8.372;2023-02-04T01:28:48;10.17;;;2.20;;
20287;SDS011;10303;51.960;8.372;2023-02-04T01:31:14;14.83;;;2.53;;
20287;SDS011;10303;51.960;8.372;2023-02-04T01:33:41;23.43;;;3.07;;
20287;SDS011;10303;51.960;8.372;2023-02-04T01:36:07;17.70;;;3.10;;
20287;SDS011;10303;51.960;8.372;2023-02-04T01:38:34;15.87;;;2.83;;
20287;SDS011;10303;51.960;8.372;2023-02-04T01:41:00;22.50;;;3.20;;
20287;SDS011;10303;51.960;8.372;2023-02-04T01:43:28;33.43;;;3.60;;
20287;SDS011;10303;51.960;8.372;2023-02-04T01:45:55;20.13;;;3.43;;
20287;SDS011;10303;51.960;8.372;2023-02-04T01:48:21;18.80;;;3.83;;
20287;SDS011;10303;51.960;8.372;2023-02-04T01:50:49;17.57;;;2.97;;
20287;SDS011;10303;51.960;8.372;2023-02-04T01:53:19;21.03;;;3.87;;
20287;SDS011;10303;51.960;8.372;2023-02-04T01:55:49;27.37;;;5.23;;
20287;SDS011;10303;51.960;8.372;2023-02-04T01:58:16;17.07;;;3.10;;
20287;SDS011;10303;51.960;8.372;2023-02-04T02:00:43;15.10;;;2.60;;
20287;SDS011;10303;51.960;8.372;2023-02-04T02:03:10;13.43;;;2.20;;
20287;SDS011;10303;51.960;8.372;2023-02-04T02:08:11;7.50;;;1.83;;
20287;SDS011;10303;51.960;8.372;2023-02-04T02:10:39;9.30;;;2.30;;
20287;SDS011;10303;51.960;8.372;2023-02-04T02:13:09;12.50;;;2.00;;
20287;SDS011;10303;51.960;8.372;2023-02-04T02:15:43;13.00;;;2.90;;
20287;SDS011;10303;51.960;8.372;2023-02-04T02:18:09;12.83;;;1.67;;
20287;SDS011;10303;51.960;8.372;2023-02-04T02:20:36;10.73;;;2.27;;
20287;SDS011;10303;51.960;8.372;2023-02-04T02:23:05;7.37;;;2.20;;
20287;SDS011;10303;51.960;8.372;2023-02-04T02:25:49;14.33;;;2.57;;
20287;SDS011;10303;51.960;8.372;2023-02-04T02:28:16;9.00;;;1.50;;
20287;SDS011;10303;51.960;8.372;2023-02-04T02:30:46;5.10;;;1.23;;
20287;SDS011;10303;51.960;8.372;2023-02-04T02:33:14;6.80;;;1.63;;
20287;SDS011;10303;51.960;8.372;2023-02-04T02:35:43;9.43;;;1.57;;
20287;SDS011;10303;51.960;8.372;2023-02-04T02:38:14;7.17;;;1.77;;
20287;SDS011;10303;51.960;8.372;2023-02-04T02:40:42;7.37;;;1.93;;
20287;SDS011;10303;51.960;8.372;2023-02-04T02:43:14;10.60;;;2.50;;
20287;SDS011;10303;51.960;8.372;2023-02-04T02:45:45;18.13;;;2.40;;
20287;SDS011;10303;51.960;8.372;2023-02-04T02:48:11;7.57;;;2.00;;
20287;SDS011;10303;51.960;8.372;2023-02-04T02:50:38;9.50;;;1.80;;
20287;SDS011;10303;51.960;8.372;2023-02-04T02:53:14;10.80;;;2.13;;
20287;SDS011;10303;51.960;8.372;2023-02-04T02:55:44;12.40;;;1.63;;
20287;SDS011;10303;51.960;8.372;2023-02-04T02:58:36;2.43;;;0.93;;
20287;SDS011;10303;51.960;8.372;2023-02-04T03:01:02;5.30;;;1.97;;
20287;SDS011;10303;51.960;8.372;2023-02-04T03:03:37;5.47;;;1.50;;
20287;SDS011;10303;51.960;8.372;2023-02-04T03:06:14;7.70;;;1.30;;
20287;SDS011;10303;51.960;8.372;2023-02-04T03:08:46;8.23;;;2.23;;
20287;SDS011;10303;51.960;8.372;2023-02-04T03:11:17;7.43;;;1.90;;
20287;SDS011;10303;51.960;8.372;2023-02-04T03:13:43;14.00;;;2.33;;
20287;SDS011;10303;51.960;8.372;2023-02-04T03:16:09;11.30;;;2.00;;
20287;SDS011;10303;51.960;8.372;2023-02-04T03:18:35;10.43;;;2.63;;
20287;SDS011;10303;51.960;8.372;2023-02-04T03:21:03;7.70;;;2.03;;
20287;SDS011;10303;51.960;8.372;2023-02-04T03:23:32;11.50;;;2.07;;
20287;SDS011;10303;51.960;8.372;2023-02-04T03:26:01;12.93;;;2.53;;
20287;SDS011;10303;51.960;8.372;2023-02-04T03:28:29;20.97;;;3.10;;
20287;SDS011;10303;51.960;8.372;2023-02-04T03:30:56;10.83;;;2.30;;
20287;SDS011;10303;51.960;8.372;2023-02-04T03:33:23;11.30;;;2.57;;
20287;SDS011;10303;51.960;8.372;2023-02-04T03:35:55;12.83;;;2.20;;
20287;SDS011;10303;51.960;8.372;2023-02-04T03:38:22;20.03;;;2.63;;
20287;SDS011;10303;51.960;8.372;2023-02-04T03:40:48;15.13;;;2.17;;
20287;SDS011;10303;51.960;8.372;2023-02-04T03:43:14;14.77;;;2.23;;
20287;SDS011;10303;51.960;8.372;2023-02-04T03:45:40;15.10;;;3.07;;
20287;SDS011;10303;51.960;8.372;2023-02-04T03:48:06;8.07;;;1.83;;
20287;SDS011;10303;51.960;8.372;2023-02-04T03:50:32;6.27;;;1.63;;
20287;SDS011;10303;51.960;8.372;2023-02-04T03:52:58;10.97;;;2.30;;
20287;SDS011;10303;51.960;8.372;2023-02-04T03:55:24;6.20;;;1.30;;
20287;SDS011;10303;51.960;8.372;2023-02-04T03:57:50;10.13;;;1.87;;
20287;SDS011;10303;51.960;8.372;2023-02-04T04:00:17;10.20;;;2.27;;
20287;SDS011;10303;51.960;8.372;2023-02-04T04:02:44;5.67;;;1.80;;
20287;SDS011;10303;51.960;8.372;2023-02-04T04:05:10;8.23;;;1.97;;
20287;SDS011;10303;51.960;8.372;2023-02-04T04:07:36;4.43;;;1.00;;
20287;SDS011;10303;51.960;8.372;2023-02-04T04:10:02;6.77;;;2.33;;
20287;SDS011;10303;51.960;8.372;2023-02-04T04:12:28;3.70;;;1.10;;
20287;SDS011;10303;51.960;8.372;2023-02-04T04:14:54;7.03;;;1.90;;
20287;SDS011;10303;51.960;8.372;2023-02-04T04:17:20;9.70;;;2.37;;
20287;SDS011;10303;51.960;8.372;2023-02-04T04:19:46;7.80;;;2.10;;
20287;SDS011;10303;51.960;8.372;2023-02-04T04:22:13;5.67;;;1.00;;
20287;SDS011;10303;51.960;8.372;2023-02-04T04:24:40;8.00;;;1.43;;
20287;SDS011;10303;51.960;8.372;2023-02-04T04:27:06;11.20;;;1.77;;
20287;SDS011;10303;51.960;8.372;2023-02-04T04:29:33;4.33;;;1.50;;
20287;SDS011;10303;51.960;8.372;2023-02-04T04:31:58;4.97;;;0.90;;
20287;SDS011;10303;51.960;8.372;2023-02-04T04:34:24;2.83;;;1.07;;
20287;SDS011;10303;51.960;8.372;2023-02-04T04:36:50;3.03;;;1.00;;
20287;SDS011;10303;51.960;8.372;2023-02-04T04:39:16;3.60;;;1.03;;
20287;SDS011;10303;51.960;8.372;2023-02-04T04:41:42;1.30;;;1.00;;
20287;SDS011;10303;51.960;8.372;2023-02-04T04:44:08;5.83;;;1.33;;
20287;SDS011;10303;51.960;8.372;2023-02-04T04:46:34;4.90;;;1.37;;
20287;SDS011;10303;51.960;8.372;2023-02-04T04:48:59;2.00;;;0.93;;
20287;SDS011;10303;51.960;8.372;2023-02-04T04:51:25;6.07;;;1.30;;
20287;SDS011;10303;51.960;8.372;2023-02-04T04:53:51;4.23;;;0.93;;
20287;SDS011;10303;51.960;8.372;2023-02-04T04:56:17;1.53;;;1.00;;
20287;SDS011;10303;51.960;8.372;2023-02-04T04:58:44;4.90;;;0.93;;
20287;SDS011;10303;51.960;8.372;2023-02-04T05:01:10;4.20;;;1.23;;
20287;SDS011;10303;51.960;8.372;2023-02-04T05:03:35;3.70;;;0.77;;
20287;SDS011;10303;51.960;8.372;2023-02-04T05:06:01;5.17;;;0.90;;
20287;SDS011;10303;51.960;8.372;2023-02-04T05:08:27;2.97;;;1.27;;
20287;SDS011;10303;51.960;8.372;2023-02-04T05:10:53;1.70;;;0.83;;
20287;SDS011;10303;51.960;8.372;2023-02-04T05:13:19;1.80;;;0.87;;
20287;SDS011;10303;51.960;8.372;2023-02-04T05:15:45;4.90;;;1.00;;
20287;SDS011;10303;51.960;8.372;2023-02-04T05:18:11;2.37;;;0.83;;
20287;SDS011;10303;51.960;8.372;2023-02-04T05:20:37;2.60;;;0.90;;
20287;SDS011;10303;51.960;8.372;2023-02-04T05:23:03;2.47;;;0.60;;
20287;SDS011;10303;51.960;8.372;2023-02-04T05:25:28;6.77;;;1.10;;
20287;SDS011;10303;51.960;8.372;2023-02-04T05:27:54;2.50;;;0.70;;
20287;SDS011;10303;51.960;8.372;2023-02-04T05:30:20;2.30;;;0.60;;
20287;SDS011;10303;51.960;8.372;2023-02-04T05:32:46;1.93;;;0.70;;
20287;SDS011;10303;51.960;8.372;2023-02-04T05:35:12;3.50;;;0.63;;
20287;SDS011;10303;51.960;8.372;2023-02-04T05:37:39;3.80;;;0.80;;
20287;SDS011;10303;51.960;8.372;2023-02-04T05:40:05;5.80;;;0.83;;
20287;SDS011;10303;51.960;8.372;2023-02-04T05:42:32;0.67;;;0.53;;
20287;SDS011;10303;51.960;8.372;2023-02-04T05:44:58;0.93;;;0.23;;
20287;SDS011;10303;51.960;8.372;2023-02-04T05:47:23;0.77;;;0.60;;
20287;SDS011;10303;51.960;8.372;2023-02-04T05:49:49;1.97;;;0.50;;
20287;SDS011;10303;51.960;8.372;2023-02-04T05:52:15;0.50;;;0.50;;
20287;SDS011;10303;51.960;8.372;2023-02-04T05:54:41;1.03;;;0.70;;
20287;SDS011;10303;51.960;8.372;2023-02-04T05:57:07;0.70;;;0.40;;
20287;SDS011;10303;51.960;8.372;2023-02-04T05:59:33;2.40;;;0.47;;
20287;SDS011;10303;51.960;8.372;2023-02-04T06:01:58;1.13;;;0.70;;
20287;SDS011;10303;51.960;8.372;2023-02-04T06:04:24;0.40;;;0.40;;
20287;SDS011;10303;51.960;8.372;2023-02-04T06:06:50;1.23;;;0.73;;
20287;SDS011;10303;51.960;8.372;2023-02-04T06:09:16;0.33;;;0.30;;
20287;SDS011;10303;51.960;8.372;2023-02-04T06:11:42;0.30;;;0.30;;
20287;SDS011;10303;51.960;8.372;2023-02-04T06:14:08;1.80;;;0.30;;
20287;SDS011;10303;51.960;8.372;2023-02-04T06:16:35;0.77;;;0.30;;
20287;SDS011;10303;51.960;8.372;2023-02-04T06:19:01;0.20;;;0.20;;
20287;SDS011;10303;51.960;8.372;2023-02-04T06:21:27;0.40;;;0.23;;
20287;SDS011;10303;51.960;8.372;2023-02-04T06:23:53;0.73;;;0.23;;
20287;SDS011;10303;51.960;8.372;2023-02-04T06:26:19;1.13;;;0.33;;
20287;SDS011;10303;51.960;8.372;2023-02-04T06:28:45;0.27;;;0.27;;
20287;SDS011;10303;51.960;8.372;2023-02-04T06:31:10;2.27;;;0.30;;
20287;SDS011;10303;51.960;8.372;2023-02-04T06:33:36;1.07;;;0.50;;
20287;SDS011;10303;51.960;8.372;2023-02-04T06:36:03;1.03;;;0.50;;
20287;SDS011;10303;51.960;8.372;2023-02-04T06:38:29;3.23;;;0.43;;
20287;SDS011;10303;51.960;8.372;2023-02-04T06:40:55;0.50;;;0.30;;
20287;SDS011;10303;51.960;8.372;2023-02-04T06:43:21;0.27;;;0.20;;
20287;SDS011;10303;51.960;8.372;2023-02-04T06:45:49;4.90;;;0.50;;
20287;SDS011;10303;51.960;8.372;2023-02-04T06:48:16;0.60;;;0.33;;
20287;SDS011;10303;51.960;8.372;2023-02-04T06:50:43;1.30;;;0.60;;
20287;SDS011;10303;51.960;8.372;2023-02-04T06:53:09;0.53;;;0.40;;
20287;SDS011;10303;51.960;8.372;2023-02-04T06:55:35;1.57;;;0.70;;
20287;SDS011;10303;51.960;8.372;2023-02-04T06:58:01;0.40;;;0.40;;
20287;SDS011;10303;51.960;8.372;2023-02-04T07:00:27;0.43;;;0.30;;
20287;SDS011;10303;51.960;8.372;2023-02-04T07:02:55;0.90;;;0.47;;
20287;SDS011;10303;51.960;8.372;2023-02-04T07:05:22;0.20;;;0.20;;
20287;SDS011;10303;51.960;8.372;2023-02-04T07:07:49;0.57;;;0.50;;
20287;SDS011;10303;51.960;8.372;2023-02-04T07:10:15;0.20;;;0.20;;
20287;SDS011;10303;51.960;8.372;2023-02-04T07:12:42;1.33;;;0.30;;
20287;SDS011;10303;51.960;8.372;2023-02-04T07:15:08;1.67;;;0.30;;
20287;SDS011;10303;51.960;8.372;2023-02-04T07:17:34;0.20;;;0.20;;
20287;SDS011;10303;51.960;8.372;2023-02-04T07:20:00;0.30;;;0.30;;
20287;SDS011;10303;51.960;8.372;2023-02-04T07:22:26;1.77;;;0.40;;
20287;SDS011;10303;51.960;8.372;2023-02-04T07:24:52;0.20;;;0.13;;
20287;SDS011;10303;51.960;8.372;2023-02-04T07:27:18;0.30;;;0.30;;
20287;SDS011;10303;51.960;8.372;2023-02-04T07:29:44;1.60;;;0.20;;
20287;SDS011;10303;51.960;8.372;2023-02-04T07:32:10;0.43;;;0.30;;
20287;SDS011;10303;51.960;8.372;2023-02-04T07:34:36;1.73;;;0.27;;
20287;SDS011;10303;51.960;8.372;2023-02-04T07:37:02;2.00;;;0.50;;
20287;SDS011;10303;51.960;8.372;2023-02-04T07:39:28;3.23;;;0.30;;
20287;SDS011;10303;51.960;8.372;2023-02-04T07:41:53;0.60;;;0.60;;
20287;SDS011;10303;51.960;8.372;2023-02-04T07:44:23;0.40;;;0.40;;
20287;SDS011;10303;51.960;8.372;2023-02-04T07:46:49;0.73;;;0.50;;
20287;SDS011;10303;51.960;8.372;2023-02-04T07:49:15;0.47;;;0.20;;
20287;SDS011;10303;51.960;8.372;2023-02-04T07:51:41;1.30;;;0.40;;
20287;SDS011;10303;51.960;8.372;2023-02-04T07:54:07;3.33;;;0.60;;
20287;SDS011;10303;51.960;8.372;2023-02-04T07:56:33;0.27;;;0.27;;
20287;SDS011;10303;51.960;8.372;2023-02-04T07:58:59;1.50;;;0.30;;
20287;SDS011;10303;51.960;8.372;2023-02-04T08:01:25;1.07;;;0.20;;
20287;SDS011;10303;51.960;8.372;2023-02-04T08:03:51;1.20;;;0.20;;
20287;SDS011;10303;51.960;8.372;2023-02-04T08:06:17;1.03;;;0.40;;
20287;SDS011;10303;51.960;8.372;2023-02-04T08:08:43;1.70;;;0.30;;
20287;SDS011;10303;51.960;8.372;2023-02-04T08:11:09;1.30;;;0.47;;
20287;SDS011;10303;51.960;8.372;2023-02-04T08:13:35;3.40;;;0.87;;
20287;SDS011;10303;51.960;8.372;2023-02-04T08:16:01;1.70;;;0.40;;
20287;SDS011;10303;51.960;8.372;2023-02-04T08:18:27;0.83;;;0.37;;
20287;SDS011;10303;51.960;8.372;2023-02-04T08:20:54;1.50;;;0.40;;
20287;SDS011;10303;51.960;8.372;2023-02-04T08:23:20;1.50;;;0.40;;
20287;SDS011;10303;51.960;8.372;2023-02-04T08:25:46;0.87;;;0.43;;
20287;SDS011;10303;51.960;8.372;2023-02-04T08:28:12;5.07;;;0.43;;
20287;SDS011;10303;51.960;8.372;2023-02-04T08:30:38;0.33;;;0.33;;
20287;SDS011;10303;51.960;8.372;2023-02-04T08:33:04;0.27;;;0.20;;
20287;SDS011;10303;51.960;8.372;2023-02-04T08:35:30;0.97;;;0.40;;
20287;SDS011;10303;51.960;8.372;2023-02-04T08:37:56;1.50;;;0.30;;
20287;SDS011;10303;51.960;8.372;2023-02-04T08:40:22;0.40;;;0.40;;
20287;SDS011;10303;51.960;8.372;2023-02-04T08:42:48;0.87;;;0.40;;
20287;SDS011;10303;51.960;8.372;2023-02-04T08:45:14;0.60;;;0.60;;
20287;SDS011;10303;51.960;8.372;2023-02-04T08:47:40;2.33;;;0.80;;
20287;SDS011;10303;51.960;8.372;2023-02-04T08:50:08;1.30;;;0.70;;
20287;SDS011;10303;51.960;8.372;2023-02-04T08:52:35;2.33;;;0.70;;
20287;SDS011;10303;51.960;8.372;2023-02-04T08:55:01;1.10;;;0.60;;
20287;SDS011;10303;51.960;8.372;2023-02-04T08:57:28;1.30;;;1.00;;
20287;SDS011;10303;51.960;8.372;2023-02-04T08:59:54;1.47;;;0.60;;
20287;SDS011;10303;51.960;8.372;2023-02-04T09:02:20;0.87;;;0.60;;
20287;SDS011;10303;51.960;8.372;2023-02-04T09:04:45;1.40;;;0.80;;
20287;SDS011;10303;51.960;8.372;2023-02-04T09:07:11;1.20;;;1.10;;
20287;SDS011;10303;51.960;8.372;2023-02-04T09:09:37;1.17;;;1.03;;
20287;SDS011;10303;51.960;8.372;2023-02-04T09:12:03;1.30;;;1.17;;
20287;SDS011;10303;51.960;8.372;2023-02-04T09:14:29;3.83;;;1.20;;
20287;SDS011;10303;51.960;8.372;2023-02-04T09:16:55;1.33;;;0.80;;
20287;SDS011;10303;51.960;8.372;2023-02-04T09:19:21;1.33;;;0.70;;
20287;SDS011;10303;51.960;8.372;2023-02-04T09:21:52;1.03;;;0.90;;
20287;SDS011;10303;51.960;8.372;2023-02-04T09:24:19;1.03;;;0.67;;
20287;SDS011;10303;51.960;8.372;2023-02-04T09:26:47;1.60;;;1.00;;
20287;SDS011;10303;51.960;8.372;2023-02-04T09:29:14;1.07;;;0.57;;
20287;SDS011;10303;51.960;8.372;2023-02-04T09:31:40;1.47;;;1.00;;
20287;SDS011;10303;51.960;8.372;2023-02-04T09:34:06;2.77;;;1.07;;
20287;SDS011;10303;51.960;8.372;2023-02-04T09:36:32;0.70;;;0.70;;
20287;SDS011;10303;51.960;8.372;2023-02-04T09:39:03;0.70;;;0.70;;
20287;SDS011;10303;51.960;8.372;2023-02-04T09:41:34;1.13;;;0.80;;
20287;SDS011;10303;51.960;8.372;2023-02-04T09:44:05;2.07;;;1.20;;
20287;SDS011;10303;51.960;8.372;2023-02-04T09:46:43;1.10;;;1.00;;
20287;SDS011;10303;51.960;8.372;2023-02-04T09:49:15;2.80;;;0.87;;
20287;SDS011;10303;51.960;8.372;2023-02-04T09:51:41;1.47;;;0.83;;
20287;SDS011;10303;51.960;8.372;2023-02-04T09:54:12;1.57;;;0.50;;
20287;SDS011;10303;51.960;8.372;2023-02-04T09:56:44;1.60;;;1.00;;
20287;SDS011;10303;51.960;8.372;2023-02-04T09:59:13;1.50;;;1.00;;
20287;SDS011;10303;51.960;8.372;2023-02-04T10:01:51;2.57;;;1.00;;
20287;SDS011;10303;51.960;8.372;2023-02-04T10:04:35;1.20;;;1.10;;
20287;SDS011;10303;51.960;8.372;2023-02-04T10:07:01;2.07;;;1.30;;
20287;SDS011;10303;51.960;8.372;2023-02-04T10:09:28;1.30;;;0.93;;
20287;SDS011;10303;51.960;8.372;2023-02-04T10:11:53;1.40;;;1.10;;
20287;SDS011;10303;51.960;8.372;2023-02-04T10:14:20;1.00;;;0.93;;
20287;SDS011;10303;51.960;8.372;2023-02-04T10:16:52;0.87;;;0.70;;
20287;SDS011;10303;51.960;8.372;2023-02-04T10:19:22;1.33;;;0.90;;
20287;SDS011;10303;51.960;8.372;2023-02-04T10:21:48;0.87;;;0.80;;
20287;SDS011;10303;51.960;8.372;2023-02-04T10:24:19;0.90;;;0.90;;
20287;SDS011;10303;51.960;8.372;2023-02-04T10:26:51;0.77;;;0.70;;
20287;SDS011;10303;51.960;8.372;2023-02-04T10:29:20;0.87;;;0.80;;
20287;SDS011;10303;51.960;8.372;2023-02-04T10:31:50;1.00;;;0.90;;
20287;SDS011;10303;51.960;8.372;2023-02-04T10:34:36;1.70;;;0.80;;
20287;SDS011;10303;51.960;8.372;2023-02-04T10:37:17;0.80;;;0.80;;
20287;SDS011;10303;51.960;8.372;2023-02-04T10:39:45;1.30;;;0.77;;
20287;SDS011;10303;51.960;8.372;2023-02-04T10:42:29;0.73;;;0.60;;
20287;SDS011;10303;51.960;8.372;2023-02-04T10:44:56;1.70;;;0.80;;
20287;SDS011;10303;51.960;8.372;2023-02-04T10:52:40;1.07;;;0.70;;
20287;SDS011;10303;51.960;8.372;2023-02-04T10:55:15;0.60;;;0.60;;
20287;SDS011;10303;51.960;8.372;2023-02-04T10:57:45;1.40;;;0.60;;
20287;SDS011;10303;51.960;8.372;2023-02-04T11:00:18;2.43;;;0.70;;
20287;SDS011;10303;51.960;8.372;2023-02-04T11:02:48;1.10;;;0.80;;
20287;SDS011;10303;51.960;8.372;2023-02-04T11:05:21;0.60;;;0.60;;
20287;SDS011;10303;51.960;8.372;2023-02-04T11:07:53;3.03;;;1.07;;
20287;SDS011;10303;51.960;8.372;2023-02-04T11:10:20;0.63;;;0.63;;
20287;SDS011;10303;51.960;8.372;2023-02-04T11:12:58;0.90;;;0.70;;
20287;SDS011;10303;51.960;8.372;2023-02-04T11:20:49;0.97;;;0.70;;
20287;SDS011;10303;51.960;8.372;2023-02-04T11:28:54;1.13;;;0.70;;
20287;SDS011;10303;51.960;8.372;2023-02-04T11:33:49;0.50;;;0.50;;
20287;SDS011;10303;51.960;8.372;2023-02-04T11:36:53;1.93;;;0.50;;
20287;SDS011;10303;51.960;8.372;2023-02-04T11:39:21;1.00;;;0.63;;
20287;SDS011;10303;51.960;8.372;2023-02-04T11:41:53;0.80;;;0.60;;
20287;SDS011;10303;51.960;8.372;2023-02-04T11:44:18;0.60;;;0.60;;
20287;SDS011;10303;51.960;8.372;2023-02-04T11:46:53;0.53;;;0.50;;
20287;SDS011;10303;51.960;8.372;2023-02-04T11:49:21;1.23;;;0.50;;
20287;SDS011;10303;51.960;8.372;2023-02-04T11:51:49;0.50;;;0.50;;
20287;SDS011;10303;51.960;8.372;2023-02-04T11:54:16;0.73;;;0.60;;
20287;SDS011;10303;51.960;8.372;2023-02-04T11:56:43;3.07;;;0.90;;
20287;SDS011;10303;51.960;8.372;2023-02-04T11:59:11;0.77;;;0.70;;
20287;SDS011;10303;51.960;8.372;2023-02-04T12:01:38;0.50;;;0.50;;
20287;SDS011;10303;51.960;8.372;2023-02-04T12:04:06;0.60;;;0.60;;
20287;SDS011;10303;51.960;8.372;2023-02-04T12:07:01;0.60;;;0.50;;
20287;SDS011;10303;51.960;8.372;2023-02-04T12:09:29;0.60;;;0.60;;
20287;SDS011;10303;51.960;8.372;2023-02-04T12:11:57;0.60;;;0.60;;
20287;SDS011;10303;51.960;8.372;2023-02-04T12:14:31;0.53;;;0.43;;
20287;SDS011;10303;51.960;8.372;2023-02-04T12:16:59;0.40;;;0.40;;
20287;SDS011;10303;51.960;8.372;2023-02-04T12:19:36;1.13;;;0.60;;
20287;SDS011;10303;51.960;8.372;2023-02-04T12:22:02;0.67;;;0.67;;
20287;SDS011;10303;51.960;8.372;2023-02-04T12:24:28;0.40;;;0.40;;
20287;SDS011;10303;51.960;8.372;2023-02-04T12:26:54;0.60;;;0.60;;
20287;SDS011;10303;51.960;8.372;2023-02-04T12:29:20;0.60;;;0.60;;
20287;SDS011;10303;51.960;8.372;2023-02-04T12:31:45;0.87;;;0.50;;
20287;SDS011;10303;51.960;8.372;2023-02-04T12:34:11;1.30;;;0.80;;
20287;SDS011;10303;51.960;8.372;2023-02-04T12:36:37;0.57;;;0.57;;
20287;SDS011;10303;51.960;8.372;2023-02-04T12:39:03;0.60;;;0.60;;
20287;SDS011;10303;51.960;8.372;2023-02-04T12:41:29;1.07;;;0.80;;
20287;SDS011;10303;51.960;8.372;2023-02-04T12:43:55;2.50;;;0.80;;
20287;SDS011;10303;51.960;8.372;2023-02-04T12:46:21;1.10;;;0.60;;
20287;SDS011;10303;51.960;8.372;2023-02-04T12:48:48;0.93;;;0.70;;
20287;SDS011;10303;51.960;8.372;2023-02-04T12:51:14;2.47;;;0.60;;
20287;SDS011;10303;51.960;8.372;2023-02-04T12:53:40;1.17;;;0.60;;
20287;SDS011;10303;51.960;8.372;2023-02-04T12:56:06;2.40;;;0.47;;
20287;SDS011;10303;51.960;8.372;2023-02-04T12:58:32;1.97;;;0.50;;
20287;SDS011;10303;51.960;8.372;2023-02-04T13:00:58;0.60;;;0.60;;
20287;SDS011;10303;51.960;8.372;2023-02-04T13:03:24;0.50;;;0.50;;
20287;SDS011;10303;51.960;8.372;2023-02-04T13:05:50;1.47;;;0.60;;
20287;SDS011;10303;51.960;8.372;2023-02-04T13:08:16;0.60;;;0.40;;
20287;SDS011;10303;51.960;8.372;2023-02-04T13:10:42;0.50;;;0.50;;
20287;SDS011;10303;51.960;8.372;2023-02-04T13:13:08;0.40;;;0.40;;
20287;SDS011;10303;51.960;8.372;2023-02-04T13:15:34;0.57;;;0.40;;
20287;SDS011;10303;51.960;8.372;2023-02-04T13:18:00;0.73;;;0.50;;
20287;SDS011;10303;51.960;8.372;2023-02-04T13:20:26;0.93;;;0.57;;
20287;SDS011;10303;51.960;8.372;2023-02-04T13:22:52;1.33;;;0.67;;
20287;SDS011;10303;51.960;8.372;2023-02-04T13:25:18;0.50;;;0.50;;
20287;SDS011;10303;51.960;8.372;2023-02-04T13:27:44;1.10;;;0.70;;
20287;SDS011;10303;51.960;8.372;2023-02-04T13:30:13;0.40;;;0.40;;
20287;SDS011;10303;51.960;8.372;2023-02-04T13:32:40;0.30;;;0.30;;
20287;SDS011;10303;51.960;8.372;2023-02-04T13:35:06;0.83;;;0.50;;
20287;SDS011;10303;51.960;8.372;2023-02-04T13:37:32;0.47;;;0.37;;
20287;SDS011;10303;51.960;8.372;2023-02-04T13:39:58;0.53;;;0.43;;
20287;SDS011;10303;51.960;8.372;2023-02-04T13:42:24;0.50;;;0.50;;
20287;SDS011;10303;51.960;8.372;2023-02-04T13:44:50;0.60;;;0.60;;
20287;SDS011;10303;51.960;8.372;2023-02-04T13:47:16;3.93;;;0.83;;
20287;SDS011;10303;51.960;8.372;2023-02-04T13:49:42;0.60;;;0.50;;
20287;SDS011;10303;51.960;8.372;2023-02-04T13:52:07;0.70;;;0.40;;
20287;SDS011;10303;51.960;8.372;2023-02-04T13:54:33;0.40;;;0.40;;
20287;SDS011;10303;51.960;8.372;2023-02-04T13:56:59;0.43;;;0.40;;
20287;SDS011;10303;51.960;8.372;2023-02-04T13:59:26;1.20;;;0.53;;
20287;SDS011;10303;51.960;8.372;2023-02-04T14:01:51;0.50;;;0.50;;
20287;SDS011;10303;51.960;8.372;2023-02-04T14:04:17;0.43;;;0.43;;
20287;SDS011;10303;51.960;8.372;2023-02-04T14:06:43;0.40;;;0.40;;
20287;SDS011;10303;51.960;8.372;2023-02-04T14:09:09;0.50;;;0.50;;
20287;SDS011;10303;51.960;8.372;2023-02-04T14:11:37;0.97;;;0.50;;
20287;SDS011;10303;51.960;8.372;2023-02-04T14:14:04;1.57;;;0.70;;
20287;SDS011;10303;51.960;8.372;2023-02-04T14:16:31;1.27;;;0.50;;
20287;SDS011;10303;51.960;8.372;2023-02-04T14:18:57;0.37;;;0.37;;
20287;SDS011;10303;51.960;8.372;2023-02-04T14:21:22;0.30;;;0.30;;
20287;SDS011;10303;51.960;8.372;2023-02-04T14:23:48;0.40;;;0.40;;
20287;SDS011;10303;51.960;8.372;2023-02-04T14:26:14;0.40;;;0.40;;
20287;SDS011;10303;51.960;8.372;2023-02-04T14:28:40;0.40;;;0.40;;
20287;SDS011;10303;51.960;8.372;2023-02-04T14:31:06;0.40;;;0.40;;
20287;SDS011;10303;51.960;8.372;2023-02-04T14:33:32;0.40;;;0.40;;
20287;SDS011;10303;51.960;8.372;2023-02-04T14:35:58;0.40;;;0.40;;
20287;SDS011;10303;51.960;8.372;2023-02-04T14:38:24;0.90;;;0.50;;
20287;SDS011;10303;51.960;8.372;2023-02-04T14:40:54;0.60;;;0.50;;
20287;SDS011;10303;51.960;8.372;2023-02-04T14:43:22;0.50;;;0.50;;
20287;SDS011;10303;51.960;8.372;2023-02-04T14:45:49;0.50;;;0.50;;
20287;SDS011;10303;51.960;8.372;2023-02-04T14:48:14;1.67;;;0.40;;
20287;SDS011;10303;51.960;8.372;2023-02-04T14:50:40;0.40;;;0.40;;
20287;SDS011;10303;51.960;8.372;2023-02-04T14:53:06;1.47;;;0.50;;
20287;SDS011;10303;51.960;8.372;2023-02-04T14:55:32;0.50;;;0.50;;
20287;SDS011;10303;51.960;8.372;2023-02-04T14:57:58;0.43;;;0.43;;
20287;SDS011;10303;51.960;8.372;2023-02-04T15:00:24;1.43;;;0.50;;
20287;SDS011;10303;51.960;8.372;2023-02-04T15:02:50;0.30;;;0.30;;
20287;SDS011;10303;51.960;8.372;2023-02-04T15:05:16;0.40;;;0.40;;
20287;SDS011;10303;51.960;8.372;2023-02-04T15:07:43;0.50;;;0.50;;